Time;durP1;ratioP1;P1;durP2;ratioP2;P2;SDS_P1;SDS_P2;PMS_P1;PMS_P2;Temp;Humidity;BMP_temperature;BMP_pressure;BME280_temperature;BME280_humidity;BME280_pressure;Samples;Min_cycle;Max_cycle;Signal;HPM_P1;HPM_P2
2024/01/14 00:00:02;;;;;;;0.20;0.20;;;;;;;;;;5028570;28;20045;-62
2024/01/14 00:02:28;;;;;;;0.20;0.20;;;;;;;;;;5027992;28;20033;-63
2024/01/14 00:04:53;;;;;;;0.67;0.67;;;;;;;;;;5027607;28;20082;-64
2024/01/14 00:07:18;;;;;;;0.20;0.20;;;;;;;;;;5024349;28;20347;-64
2024/01/14 00:09:43;;;;;;;0.30;0.30;;;;;;;;;;5027666;28;20486;-63
2024/01/14 00:12:10;;;;;;;0.20;0.20;;;;;;;;;;5028097;28;20036;-64
2024/01/14 00:14:35;;;;;;;31.83;1.07;;;;;;;;;;5027016;28;20037;-64
2024/01/14 00:17:00;;;;;;;3.93;1.20;;;;;;;;;;5025555;28;20044;-62
2024/01/14 00:19:25;;;;;;;0.60;0.60;;;;;;;;;;5024092;28;20049;-63
2024/01/14 00:21:51;;;;;;;0.40;0.40;;;;;;;;;;5029041;28;20049;-63
2024/01/14 00:24:16;;;;;;;0.37;0.37;;;;;;;;;;5031248;28;20029;-63
2024/01/14 00:26:41;;;;;;;0.40;0.40;;;;;;;;;;5027168;28;20100;-64
2024/01/14 00:29:07;;;;;;;0.60;0.60;;;;;;;;;;5028252;28;20028;-63
2024/01/14 00:31:32;;;;;;;0.30;0.30;;;;;;;;;;5026492;28;20100;-63
2024/01/14 00:33:57;;;;;;;1.17;0.70;;;;;;;;;;5026001;28;20594;-63
2024/01/14 00:36:22;;;;;;;0.30;0.30;;;;;;;;;;5024569;28;20049;-63
2024/01/14 00:38:48;;;;;;;0.50;0.50;;;;;;;;;;5027029;28;20038;-63
2024/01/14 00:41:13;;;;;;;6.73;1.43;;;;;;;;;;5028017;28;20044;-63
2024/01/14 00:43:38;;;;;;;7.53;1.40;;;;;;;;;;5027562;28;20025;-63
2024/01/14 00:46:04;;;;;;;0.73;0.73;;;;;;;;;;5026982;28;20397;-67
2024/01/14 00:48:29;;;;;;;0.20;0.20;;;;;;;;;;5027304;28;20451;-68
2024/01/14 00:50:54;;;;;;;0.30;0.30;;;;;;;;;;5027408;28;20141;-67
2024/01/14 00:53:20;;;;;;;0.30;0.30;;;;;;;;;;5027607;28;20568;-68
2024/01/14 00:55:45;;;;;;;0.20;0.20;;;;;;;;;;5027415;28;20421;-68
2024/01/14 00:58:11;;;;;;;0.53;0.50;;;;;;;;;;5028217;28;20033;-68
2024/01/14 01:00:36;;;;;;;0.20;0.20;;;;;;;;;;5028301;28;20029;-68
2024/01/14 01:03:01;;;;;;;0.20;0.20;;;;;;;;;;5028105;28;20053;-68
2024/01/14 01:05:27;;;;;;;1.60;0.97;;;;;;;;;;5026597;28;20033;-68
2024/01/14 01:07:52;;;;;;;14.60;2.40;;;;;;;;;;5027717;28;20485;-68
2024/01/14 01:10:17;;;;;;;13.23;3.13;;;;;;;;;;5028115;28;20069;-68
2024/01/14 01:12:43;;;;;;;9.80;1.57;;;;;;;;;;5028303;28;20030;-69
2024/01/14 01:15:08;;;;;;;12.17;2.07;;;;;;;;;;5026002;28;20034;-68
2024/01/14 01:17:34;;;;;;;10.97;2.10;;;;;;;;;;5023139;28;20029;-68
2024/01/14 01:20:00;;;;;;;10.10;2.20;;;;;;;;;;5027232;28;20056;-68
2024/01/14 01:22:25;;;;;;;15.03;2.73;;;;;;;;;;5027259;28;20448;-68
2024/01/14 01:24:50;;;;;;;9.13;2.10;;;;;;;;;;5024865;28;20550;-68
2024/01/14 01:27:16;;;;;;;5.93;1.53;;;;;;;;;;5027225;28;20033;-68
2024/01/14 01:29:42;;;;;;;13.23;2.30;;;;;;;;;;5025989;28;20478;-67
2024/01/14 01:32:08;;;;;;;8.50;2.13;;;;;;;;;;5026846;28;20083;-68
2024/01/14 01:34:33;;;;;;;10.50;1.90;;;;;;;;;;5026894;28;20024;-68
2024/01/14 01:36:58;;;;;;;12.37;1.80;;;;;;;;;;5027144;28;20866;-68
2024/01/14 01:39:24;;;;;;;13.93;2.33;;;;;;;;;;5026872;28;20093;-68
2024/01/14 01:41:50;;;;;;;6.20;1.57;;;;;;;;;;5027350;28;20025;-68
2024/01/14 01:44:16;;;;;;;8.53;1.60;;;;;;;;;;5023980;28;20037;-69
2024/01/14 01:46:41;;;;;;;11.53;1.93;;;;;;;;;;5025483;28;20146;-68
2024/01/14 01:49:07;;;;;;;6.83;1.27;;;;;;;;;;5026137;28;20079;-68
2024/01/14 01:51:32;;;;;;;8.10;1.80;;;;;;;;;;5026555;28;20385;-69
2024/01/14 01:53:57;;;;;;;15.97;1.63;;;;;;;;;;5026722;28;20083;-68
2024/01/14 01:56:23;;;;;;;10.80;1.30;;;;;;;;;;5025276;28;20036;-64
2024/01/14 01:58:49;;;;;;;8.50;1.77;;;;;;;;;;5027035;28;20108;-63
2024/01/14 02:01:14;;;;;;;6.73;1.30;;;;;;;;;;5027062;28;20521;-64
2024/01/14 02:03:40;;;;;;;8.27;1.43;;;;;;;;;;5026811;28;20075;-63
2024/01/14 02:06:05;;;;;;;6.60;1.20;;;;;;;;;;5027084;28;20513;-63
2024/01/14 02:08:31;;;;;;;9.30;1.40;;;;;;;;;;5026210;28;20022;-64
2024/01/14 02:10:57;;;;;;;9.00;1.30;;;;;;;;;;5026911;28;20095;-64
2024/01/14 02:13:22;;;;;;;6.23;1.20;;;;;;;;;;5026852;28;20517;-63
2024/01/14 02:15:48;;;;;;;13.47;1.27;;;;;;;;;;5026973;28;20079;-63
2024/01/14 02:18:13;;;;;;;9.43;1.20;;;;;;;;;;5026720;28;20036;-63
2024/01/14 02:20:39;;;;;;;6.20;1.10;;;;;;;;;;5026122;28;20528;-63
2024/01/14 02:23:06;;;;;;;4.90;1.43;;;;;;;;;;5026613;28;20049;-63
2024/01/14 02:25:31;;;;;;;12.00;1.40;;;;;;;;;;5026442;28;20035;-63
2024/01/14 02:27:59;;;;;;;6.70;1.27;;;;;;;;;;5026436;28;20057;-63
2024/01/14 02:30:24;;;;;;;4.87;1.33;;;;;;;;;;5026577;28;20029;-64
2024/01/14 02:32:50;;;;;;;13.90;2.00;;;;;;;;;;5026113;28;20057;-63
2024/01/14 02:35:16;;;;;;;5.37;1.40;;;;;;;;;;5026158;28;20032;-63
2024/01/14 02:37:43;;;;;;;5.87;1.20;;;;;;;;;;5026214;28;20033;-63
2024/01/14 02:40:09;;;;;;;9.40;1.50;;;;;;;;;;5026765;28;20033;-63
2024/01/14 02:42:35;;;;;;;4.87;1.13;;;;;;;;;;5026864;28;20740;-63
2024/01/14 02:45:00;;;;;;;5.40;1.10;;;;;;;;;;5025436;28;20037;-63
2024/01/14 02:47:26;;;;;;;7.77;1.13;;;;;;;;;;5025073;28;20025;-64
2024/01/14 02:49:51;;;;;;;4.63;1.10;;;;;;;;;;5026495;28;20033;-63
2024/01/14 02:52:17;;;;;;;5.73;1.30;;;;;;;;;;5025793;28;21006;-63
2024/01/14 02:54:42;;;;;;;10.73;1.17;;;;;;;;;;5025858;28;20509;-63
2024/01/14 02:57:07;;;;;;;8.43;1.50;;;;;;;;;;5027416;28;20100;-63
2024/01/14 02:59:32;;;;;;;9.70;1.60;;;;;;;;;;5030315;28;20029;-63
2024/01/14 03:01:58;;;;;;;6.40;1.37;;;;;;;;;;5029751;28;20095;-63
2024/01/14 03:04:23;;;;;;;8.33;1.13;;;;;;;;;;5030002;28;20045;-64
2024/01/14 03:06:48;;;;;;;12.90;1.80;;;;;;;;;;5029898;28;20041;-68
2024/01/14 03:09:14;;;;;;;5.60;1.40;;;;;;;;;;5029333;28;20030;-68
2024/01/14 03:11:39;;;;;;;9.43;1.40;;;;;;;;;;5029183;28;20033;-68
2024/01/14 03:14:05;;;;;;;10.60;1.60;;;;;;;;;;5029799;28;20033;-68
2024/01/14 03:16:30;;;;;;;9.97;1.37;;;;;;;;;;5029418;28;20069;-68
2024/01/14 03:18:55;;;;;;;11.30;1.77;;;;;;;;;;5029528;28;20429;-68
2024/01/14 03:21:20;;;;;;;13.70;1.60;;;;;;;;;;5029361;28;20094;-68
2024/01/14 03:23:46;;;;;;;8.63;1.93;;;;;;;;;;5027490;28;20049;-67
2024/01/14 03:26:11;;;;;;;11.57;1.60;;;;;;;;;;5029122;28;20045;-68
2024/01/14 03:28:37;;;;;;;7.87;1.50;;;;;;;;;;5029233;28;20075;-68
2024/01/14 03:31:03;;;;;;;8.63;1.47;;;;;;;;;;5029614;28;20501;-68
2024/01/14 03:33:28;;;;;;;3.40;1.07;;;;;;;;;;5028997;28;20060;-68
2024/01/14 03:35:54;;;;;;;12.83;1.87;;;;;;;;;;5029010;28;20458;-68
2024/01/14 03:38:19;;;;;;;8.33;1.57;;;;;;;;;;5029483;28;20355;-68
2024/01/14 03:40:45;;;;;;;10.07;1.60;;;;;;;;;;5029065;28;20095;-68
2024/01/14 03:43:10;;;;;;;6.37;1.50;;;;;;;;;;5028266;28;20393;-68
2024/01/14 03:45:35;;;;;;;4.00;1.30;;;;;;;;;;5028605;28;20024;-68
2024/01/14 03:48:00;;;;;;;4.30;1.20;;;;;;;;;;5026929;28;20044;-67
2024/01/14 03:50:26;;;;;;;16.90;1.70;;;;;;;;;;5029450;28;20024;-68
2024/01/14 03:52:51;;;;;;;9.00;1.47;;;;;;;;;;5029460;28;20730;-67
2024/01/14 03:55:16;;;;;;;10.10;1.63;;;;;;;;;;5028465;28;20029;-66
2024/01/14 03:57:42;;;;;;;22.13;2.90;;;;;;;;;;5029003;28;20029;-67
2024/01/14 04:00:08;;;;;;;9.33;1.60;;;;;;;;;;5029127;28;20033;-68
2024/01/14 04:02:34;;;;;;;8.00;1.47;;;;;;;;;;5027789;28;20535;-68
2024/01/14 04:04:59;;;;;;;9.00;1.50;;;;;;;;;;5028748;28;20087;-68
2024/01/14 04:07:24;;;;;;;9.17;1.73;;;;;;;;;;5028829;28;20470;-68
2024/01/14 04:09:50;;;;;;;6.03;1.43;;;;;;;;;;5028126;28;20719;-68
2024/01/14 04:12:15;;;;;;;8.23;1.80;;;;;;;;;;5028180;28;20057;-67
2024/01/14 04:14:41;;;;;;;10.53;1.80;;;;;;;;;;5027982;28;20104;-68
2024/01/14 04:17:06;;;;;;;6.97;1.40;;;;;;;;;;5028416;28;20075;-68
2024/01/14 04:19:31;;;;;;;3.93;1.33;;;;;;;;;;5027872;28;20045;-68
2024/01/14 04:21:57;;;;;;;6.90;1.60;;;;;;;;;;5028543;28;20029;-68
2024/01/14 04:24:22;;;;;;;7.57;1.80;;;;;;;;;;5029606;28;20030;-68
2024/01/14 04:26:48;;;;;;;5.03;1.40;;;;;;;;;;5027693;28;20552;-68
2024/01/14 04:29:13;;;;;;;8.53;2.00;;;;;;;;;;5028354;28;20021;-67
2024/01/14 04:31:38;;;;;;;7.83;2.07;;;;;;;;;;5027112;28;20497;-67
2024/01/14 04:34:04;;;;;;;8.77;1.90;;;;;;;;;;5027438;28;20401;-68
2024/01/14 04:36:29;;;;;;;9.47;1.60;;;;;;;;;;5027654;28;20029;-68
2024/01/14 04:38:55;;;;;;;13.17;1.90;;;;;;;;;;5028304;28;20041;-67
2024/01/14 04:41:20;;;;;;;7.37;1.60;;;;;;;;;;5026467;28;20497;-68
2024/01/14 04:43:45;;;;;;;12.17;1.60;;;;;;;;;;5028036;28;20561;-67
2024/01/14 04:46:11;;;;;;;10.60;1.93;;;;;;;;;;5028046;28;20087;-68
2024/01/14 04:48:36;;;;;;;8.77;1.53;;;;;;;;;;5028035;28;20108;-68
2024/01/14 04:51:02;;;;;;;12.90;2.23;;;;;;;;;;5027238;28;20035;-67
2024/01/14 04:53:27;;;;;;;7.80;1.80;;;;;;;;;;5027713;28;20018;-67
2024/01/14 04:55:53;;;;;;;15.83;2.03;;;;;;;;;;5028211;28;20029;-68
2024/01/14 04:58:18;;;;;;;16.10;2.10;;;;;;;;;;5027292;28;20091;-68
2024/01/14 05:00:43;;;;;;;15.60;2.07;;;;;;;;;;5027893;28;20095;-68
2024/01/14 05:03:09;;;;;;;9.07;2.20;;;;;;;;;;5027781;28;20063;-68
2024/01/14 05:05:34;;;;;;;9.10;1.57;;;;;;;;;;5027921;28;20079;-68
2024/01/14 05:07:59;;;;;;;6.27;1.57;;;;;;;;;;5027583;28;20075;-70
2024/01/14 05:10:25;;;;;;;12.97;1.83;;;;;;;;;;5027522;28;20028;-68
2024/01/14 05:12:50;;;;;;;10.60;1.50;;;;;;;;;;5024031;28;20029;-67
2024/01/14 05:15:15;;;;;;;9.37;1.67;;;;;;;;;;5028004;28;20036;-67
2024/01/14 05:17:41;;;;;;;7.07;1.50;;;;;;;;;;5028041;28;20036;-67
2024/01/14 05:20:07;;;;;;;8.50;2.10;;;;;;;;;;5026734;28;20049;-68
2024/01/14 05:22:33;;;;;;;12.00;1.57;;;;;;;;;;5026110;28;20044;-67
2024/01/14 05:24:58;;;;;;;6.00;2.07;;;;;;;;;;5027202;28;20022;-67
2024/01/14 05:27:23;;;;;;;9.20;1.60;;;;;;;;;;5027036;28;20367;-63
2024/01/14 05:29:49;;;;;;;8.93;1.70;;;;;;;;;;5026927;28;20079;-62
2024/01/14 05:32:15;;;;;;;13.77;1.90;;;;;;;;;;5027240;28;20021;-62
2024/01/14 05:34:41;;;;;;;8.90;1.30;;;;;;;;;;5026902;28;20463;-62
2024/01/14 05:37:06;;;;;;;10.80;1.73;;;;;;;;;;5027162;28;20062;-63
2024/01/14 05:39:32;;;;;;;6.20;1.33;;;;;;;;;;5027329;28;20025;-62
2024/01/14 05:41:58;;;;;;;6.43;1.30;;;;;;;;;;5026999;28;20108;-62
2024/01/14 05:44:23;;;;;;;16.27;1.73;;;;;;;;;;5026993;28;20108;-63
2024/01/14 05:46:48;;;;;;;7.03;1.50;;;;;;;;;;5026160;28;20049;-61
2024/01/14 05:49:13;;;;;;;8.10;1.37;;;;;;;;;;5026780;28;20436;-62
2024/01/14 05:51:39;;;;;;;10.40;2.00;;;;;;;;;;5025623;28;20033;-63
2024/01/14 05:54:04;;;;;;;11.73;1.67;;;;;;;;;;5026507;28;20021;-62
2024/01/14 05:56:30;;;;;;;5.20;1.60;;;;;;;;;;5026995;28;20112;-62
2024/01/14 05:58:55;;;;;;;7.57;1.87;;;;;;;;;;5026729;28;20033;-63
2024/01/14 06:01:21;;;;;;;10.10;1.40;;;;;;;;;;5026152;28;20061;-62
2024/01/14 06:03:46;;;;;;;9.50;1.60;;;;;;;;;;5026295;28;20032;-63
2024/01/14 06:06:11;;;;;;;13.93;1.80;;;;;;;;;;5026940;28;20052;-62
2024/01/14 06:08:36;;;;;;;13.70;1.83;;;;;;;;;;5024812;28;20502;-62
2024/01/14 06:11:03;;;;;;;10.33;1.67;;;;;;;;;;5025223;28;20022;-62
2024/01/14 06:13:29;;;;;;;11.43;1.77;;;;;;;;;;5024550;28;20043;-62
2024/01/14 06:15:54;;;;;;;14.27;2.20;;;;;;;;;;5026823;28;20056;-63
2024/01/14 06:18:19;;;;;;;12.30;1.87;;;;;;;;;;5026068;28;20020;-62
2024/01/14 06:20:45;;;;;;;16.03;2.20;;;;;;;;;;5026887;28;20498;-62
2024/01/14 06:23:10;;;;;;;5.27;1.53;;;;;;;;;;5026981;28;20032;-62
2024/01/14 06:25:35;;;;;;;11.73;1.77;;;;;;;;;;5025103;28;20025;-62
2024/01/14 06:28:02;;;;;;;13.73;1.83;;;;;;;;;;5025140;28;20586;-62
2024/01/14 06:30:27;;;;;;;13.83;1.60;;;;;;;;;;5025542;28;20025;-62
2024/01/14 06:32:55;;;;;;;12.67;2.07;;;;;;;;;;5029415;28;20022;-62
2024/01/14 06:35:21;;;;;;;11.67;1.67;;;;;;;;;;5029383;28;20476;-62
2024/01/14 06:37:47;;;;;;;10.63;1.60;;;;;;;;;;5030779;28;20025;-68
2024/01/14 06:40:12;;;;;;;11.20;1.63;;;;;;;;;;5029818;28;20063;-67
2024/01/14 06:42:37;;;;;;;16.70;1.60;;;;;;;;;;5029147;28;20104;-67
2024/01/14 06:45:03;;;;;;;8.83;1.67;;;;;;;;;;5030309;28;20130;-67
2024/01/14 06:47:28;;;;;;;12.53;1.97;;;;;;;;;;5029862;28;20066;-68
2024/01/14 06:49:54;;;;;;;14.47;1.97;;;;;;;;;;5030285;28;20026;-68
2024/01/14 06:52:22;;;;;;;19.97;2.37;;;;;;;;;;5027759;28;20385;-67
2024/01/14 06:54:47;;;;;;;7.40;1.83;;;;;;;;;;5030379;28;20398;-67
2024/01/14 06:57:13;;;;;;;14.17;1.93;;;;;;;;;;5029780;28;20026;-67
2024/01/14 06:59:42;;;;;;;13.33;1.70;;;;;;;;;;5029856;28;20029;-67
2024/01/14 07:02:07;;;;;;;13.50;1.80;;;;;;;;;;5029494;28;20029;-68
2024/01/14 07:04:32;;;;;;;12.33;2.03;;;;;;;;;;5029658;28;20500;-68
2024/01/14 07:06:57;;;;;;;7.13;1.40;;;;;;;;;;5029378;28;20371;-67
2024/01/14 07:09:23;;;;;;;9.20;1.90;;;;;;;;;;5028234;28;20159;-68
2024/01/14 07:11:48;;;;;;;13.80;1.70;;;;;;;;;;5029897;28;20026;-67
2024/01/14 07:14:13;;;;;;;9.47;1.73;;;;;;;;;;5029946;28;20017;-68
2024/01/14 07:16:38;;;;;;;13.10;1.67;;;;;;;;;;5029679;28;20045;-68
2024/01/14 07:19:04;;;;;;;12.77;2.33;;;;;;;;;;5029708;28;20029;-68
2024/01/14 07:21:31;;;;;;;13.43;1.77;;;;;;;;;;5029651;28;20034;-67
2024/01/14 07:23:56;;;;;;;5.87;1.80;;;;;;;;;;5029419;28;20025;-68
2024/01/14 07:26:21;;;;;;;12.30;2.53;;;;;;;;;;5029115;28;20034;-67
2024/01/14 07:28:46;;;;;;;18.53;2.37;;;;;;;;;;5029624;28;20029;-68
2024/01/14 07:31:16;;;;;;;15.60;2.07;;;;;;;;;;5028889;28;20032;-68
2024/01/14 07:33:41;;;;;;;12.03;2.37;;;;;;;;;;5007956;28;20025;-68
2024/01/14 07:36:06;;;;;;;16.33;2.40;;;;;;;;;;5028354;28;20033;-68
2024/01/14 07:38:32;;;;;;;13.50;2.00;;;;;;;;;;5028090;28;20056;-68
2024/01/14 07:40:57;;;;;;;8.93;1.70;;;;;;;;;;5027986;28;20120;-67
2024/01/14 07:43:22;;;;;;;17.73;2.57;;;;;;;;;;5026073;28;20022;-67
2024/01/14 07:45:49;;;;;;;12.13;2.30;;;;;;;;;;5029420;28;20017;-68
2024/01/14 07:48:14;;;;;;;17.07;2.13;;;;;;;;;;5029147;28;20120;-67
2024/01/14 07:50:40;;;;;;;16.50;2.43;;;;;;;;;;5028932;28;20108;-67
2024/01/14 07:53:05;;;;;;;13.30;1.70;;;;;;;;;;5028654;28;20377;-67
2024/01/14 07:55:30;;;;;;;10.57;1.80;;;;;;;;;;5029092;28;20076;-68
2024/01/14 07:57:57;;;;;;;12.20;1.70;;;;;;;;;;5029171;28;20025;-67
2024/01/14 08:00:22;;;;;;;13.33;2.30;;;;;;;;;;5028109;28;20041;-67
2024/01/14 08:02:47;;;;;;;10.83;1.77;;;;;;;;;;5028999;28;20135;-67
2024/01/14 08:05:12;;;;;;;9.33;2.20;;;;;;;;;;5027939;28;20038;-66
2024/01/14 08:07:38;;;;;;;9.00;1.57;;;;;;;;;;5028742;28;20163;-67
2024/01/14 08:10:04;;;;;;;16.60;2.10;;;;;;;;;;5028906;28;20022;-68
2024/01/14 08:12:29;;;;;;;15.93;3.60;;;;;;;;;;5026481;28;20465;-68
2024/01/14 08:14:55;;;;;;;11.50;2.17;;;;;;;;;;5028538;28;20067;-67
2024/01/14 08:17:21;;;;;;;10.27;2.37;;;;;;;;;;5028636;28;20056;-68
2024/01/14 08:19:46;;;;;;;15.87;2.47;;;;;;;;;;5028554;28;20053;-68
2024/01/14 08:22:11;;;;;;;15.47;2.30;;;;;;;;;;5027565;28;20025;-68
2024/01/14 08:24:36;;;;;;;16.67;2.50;;;;;;;;;;5028870;28;20403;-68
2024/01/14 08:27:02;;;;;;;11.90;2.70;;;;;;;;;;5027964;28;20104;-68
2024/01/14 08:29:27;;;;;;;11.00;2.67;;;;;;;;;;5031615;28;20028;-68
2024/01/14 08:31:53;;;;;;;18.73;3.40;;;;;;;;;;5033291;28;20107;-68
2024/01/14 08:34:18;;;;;;;12.13;2.37;;;;;;;;;;5027263;28;20021;-67
2024/01/14 08:36:43;;;;;;;12.50;2.83;;;;;;;;;;5032990;28;20037;-68
2024/01/14 08:39:08;;;;;;;11.83;2.63;;;;;;;;;;5027099;28;20119;-68
2024/01/14 08:41:34;;;;;;;15.03;2.60;;;;;;;;;;5026121;28;20598;-68
2024/01/14 08:43:59;;;;;;;9.10;2.57;;;;;;;;;;5027507;28;20389;-68
2024/01/14 08:46:25;;;;;;;14.20;2.70;;;;;;;;;;5026867;28;20055;-68
2024/01/14 08:48:50;;;;;;;11.00;2.80;;;;;;;;;;5028021;28;20022;-67
2024/01/14 08:51:15;;;;;;;10.90;2.60;;;;;;;;;;5027110;28;20014;-68
2024/01/14 08:53:41;;;;;;;20.00;3.47;;;;;;;;;;5028481;28;20079;-68
2024/01/14 08:56:06;;;;;;;15.90;3.20;;;;;;;;;;5027626;28;20722;-67
2024/01/14 08:58:31;;;;;;;20.07;2.90;;;;;;;;;;5028181;28;20397;-63
2024/01/14 09:00:57;;;;;;;15.87;3.03;;;;;;;;;;5028192;28;20554;-62
2024/01/14 09:03:22;;;;;;;12.60;2.53;;;;;;;;;;5027661;28;20027;-63
2024/01/14 09:05:47;;;;;;;10.33;2.57;;;;;;;;;;5027763;28;20100;-62
2024/01/14 09:08:13;;;;;;;14.47;3.53;;;;;;;;;;5026822;28;20037;-62
2024/01/14 09:10:38;;;;;;;16.40;3.70;;;;;;;;;;5027796;28;20025;-63
2024/01/14 09:13:04;;;;;;;16.30;3.37;;;;;;;;;;5027174;28;20028;-62
2024/01/14 09:15:30;;;;;;;10.17;2.50;;;;;;;;;;5027480;28;20017;-63
2024/01/14 09:17:55;;;;;;;13.03;3.00;;;;;;;;;;5025927;28;20699;-63
2024/01/14 09:20:20;;;;;;;9.53;3.17;;;;;;;;;;5027251;28;20405;-62
2024/01/14 09:22:46;;;;;;;13.90;3.30;;;;;;;;;;5027084;28;20033;-63
2024/01/14 09:25:11;;;;;;;11.93;3.23;;;;;;;;;;5026604;28;20143;-64
2024/01/14 09:27:37;;;;;;;11.50;2.80;;;;;;;;;;5027046;28;20033;-62
2024/01/14 09:30:02;;;;;;;12.17;2.30;;;;;;;;;;5026703;28;20028;-63
2024/01/14 09:32:27;;;;;;;10.37;2.60;;;;;;;;;;5027271;28;20060;-63
2024/01/14 09:34:53;;;;;;;13.30;3.23;;;;;;;;;;5027595;28;20053;-63
2024/01/14 09:37:18;;;;;;;13.37;3.47;;;;;;;;;;5025075;28;20025;-63
2024/01/14 09:39:44;;;;;;;8.37;2.80;;;;;;;;;;5027088;28;20405;-62
2024/01/14 09:42:14;;;;;;;13.20;4.10;;;;;;;;;;5025829;28;20245;-62
2024/01/14 09:44:40;;;;;;;13.80;3.30;;;;;;;;;;5026657;28;20116;-63
2024/01/14 09:47:08;;;;;;;6.90;2.57;;;;;;;;;;5026957;28;20489;-63
2024/01/14 09:49:34;;;;;;;7.47;2.30;;;;;;;;;;5027254;28;20470;-63
2024/01/14 09:52:00;;;;;;;7.67;2.50;;;;;;;;;;5025826;28;20036;-62
2024/01/14 09:54:25;;;;;;;8.23;2.97;;;;;;;;;;5026800;28;20544;-64
2024/01/14 09:56:52;;;;;;;11.87;2.50;;;;;;;;;;5026745;28;20033;-63
2024/01/14 09:59:19;;;;;;;10.57;3.13;;;;;;;;;;5026608;28;20033;-62
2024/01/14 10:01:45;;;;;;;11.67;2.50;;;;;;;;;;5026956;28;20080;-63
2024/01/14 10:04:10;;;;;;;9.37;2.30;;;;;;;;;;5026167;28;20457;-62
2024/01/14 10:06:36;;;;;;;11.90;2.80;;;;;;;;;;5026015;28;20034;-63
2024/01/14 10:09:01;;;;;;;15.43;3.50;;;;;;;;;;5030823;28;20025;-68
2024/01/14 10:11:27;;;;;;;8.23;2.73;;;;;;;;;;5030073;28;20028;-68
2024/01/14 10:13:52;;;;;;;11.03;3.07;;;;;;;;;;5029253;28;20029;-68
2024/01/14 10:16:17;;;;;;;7.40;2.00;;;;;;;;;;5029984;28;20076;-68
2024/01/14 10:18:43;;;;;;;15.37;3.87;;;;;;;;;;5030780;28;20031;-68
2024/01/14 10:21:09;;;;;;;10.67;3.00;;;;;;;;;;5030351;28;20072;-68
2024/01/14 10:23:35;;;;;;;9.63;2.40;;;;;;;;;;5030557;28;20018;-69
2024/01/14 10:26:01;;;;;;;12.73;3.10;;;;;;;;;;5030067;28;20041;-69
2024/01/14 10:28:36;;;;;;;8.53;2.73;;;;;;;;;;5029728;28;20057;-68
2024/01/14 10:31:02;;;;;;;13.53;3.50;;;;;;;;;;5027805;28;20051;-69
2024/01/14 10:33:32;;;;;;;9.00;2.87;;;;;;;;;;5026315;28;20037;-69
2024/01/14 10:35:58;;;;;;;7.30;3.03;;;;;;;;;;5029237;28;20104;-68
2024/01/14 10:38:23;;;;;;;9.30;3.13;;;;;;;;;;5030633;28;20116;-69
2024/01/14 10:40:48;;;;;;;14.77;3.90;;;;;;;;;;5030331;28;20719;-69
2024/01/14 10:43:13;;;;;;;8.33;3.30;;;;;;;;;;5029697;28;20025;-69
2024/01/14 10:45:39;;;;;;;9.63;3.13;;;;;;;;;;5030193;28;20490;-69
2024/01/14 10:48:07;;;;;;;13.70;3.20;;;;;;;;;;5028875;28;20029;-68
2024/01/14 10:50:32;;;;;;;13.20;3.90;;;;;;;;;;5029540;28;20017;-68
2024/01/14 10:53:00;;;;;;;10.67;3.97;;;;;;;;;;5028533;28;20084;-69
2024/01/14 10:55:25;;;;;;;13.37;5.00;;;;;;;;;;5030146;28;20492;-67
2024/01/14 10:57:51;;;;;;;14.77;5.70;;;;;;;;;;5029930;28;20029;-70
2024/01/14 11:00:17;;;;;;;16.63;5.33;;;;;;;;;;5028808;28;20116;-68
2024/01/14 11:02:44;;;;;;;15.00;5.43;;;;;;;;;;5028617;28;20029;-68
2024/01/14 11:05:10;;;;;;;16.63;5.90;;;;;;;;;;5029767;28;20088;-67
2024/01/14 11:07:36;;;;;;;14.27;5.90;;;;;;;;;;5028537;28;20057;-69
2024/01/14 11:10:05;;;;;;;15.13;5.10;;;;;;;;;;5030194;28;20061;-68
2024/01/14 11:12:39;;;;;;;19.33;7.20;;;;;;;;;;5029409;28;20489;-68
2024/01/14 11:15:10;;;;;;;17.17;6.40;;;;;;;;;;5029099;28;20112;-68
2024/01/14 11:17:44;;;;;;;19.98;7.22;;;;;;;;;;5029275;28;20037;-68
2024/01/14 11:20:21;;;;;;;19.10;6.50;;;;;;;;;;5029109;28;20041;-68
2024/01/14 11:22:46;;;;;;;21.87;7.23;;;;;;;;;;5029050;28;20032;-68
2024/01/14 11:25:16;;;;;;;26.37;8.40;;;;;;;;;;5029213;28;20021;-67
2024/01/14 11:27:41;;;;;;;20.57;8.33;;;;;;;;;;5029408;28;21253;-68
2024/01/14 11:30:11;;;;;;;22.97;9.37;;;;;;;;;;5028539;28;20079;-69
2024/01/14 11:32:36;;;;;;;24.70;9.80;;;;;;;;;;5026356;28;20048;-68
2024/01/14 11:35:02;;;;;;;20.93;8.83;;;;;;;;;;5028964;28;20432;-67
2024/01/14 11:37:32;;;;;;;22.77;9.20;;;;;;;;;;5027969;28;20037;-67
2024/01/14 11:40:11;;;;;;;29.37;10.47;;;;;;;;;;5028469;28;20057;-69
2024/01/14 11:42:45;;;;;;;28.83;11.30;;;;;;;;;;5026325;28;20045;-68
2024/01/14 11:45:32;;;;;;;26.93;9.83;;;;;;;;;;5029073;28;20103;-68
2024/01/14 11:47:57;;;;;;;24.83;8.63;;;;;;;;;;5028244;28;20017;-67
2024/01/14 11:50:26;;;;;;;31.60;11.37;;;;;;;;;;5028562;28;20028;-68
2024/01/14 11:52:52;;;;;;;31.83;11.77;;;;;;;;;;5028214;28;20030;-67
2024/01/14 11:55:18;;;;;;;30.40;11.43;;;;;;;;;;5028717;28;20040;-67
2024/01/14 11:57:47;;;;;;;27.50;9.73;;;;;;;;;;5028015;28;20026;-67
2024/01/14 12:00:12;;;;;;;22.00;9.37;;;;;;;;;;5027006;28;20079;-66
2024/01/14 12:02:37;;;;;;;31.20;10.60;;;;;;;;;;5028864;28;20021;-68
2024/01/14 12:05:19;;;;;;;20.17;7.97;;;;;;;;;;5025245;28;20029;-67
2024/01/14 12:07:44;;;;;;;27.23;10.23;;;;;;;;;;5029070;28;20478;-66
2024/01/14 12:10:18;;;;;;;32.10;11.93;;;;;;;;;;5028535;28;20037;-68
2024/01/14 12:12:43;;;;;;;26.70;10.53;;;;;;;;;;5026551;28;20424;-67
2024/01/14 12:15:09;;;;;;;21.97;8.47;;;;;;;;;;5027703;28;20025;-66
2024/01/14 12:17:34;;;;;;;14.70;6.13;;;;;;;;;;5028455;28;20382;-66
2024/01/14 12:19:59;;;;;;;20.53;8.87;;;;;;;;;;5027233;28;20223;-66
2024/01/14 12:22:27;;;;;;;15.50;7.77;;;;;;;;;;5028988;28;20074;-67
2024/01/14 12:24:53;;;;;;;22.50;9.53;;;;;;;;;;5028060;28;20409;-67
2024/01/14 12:27:19;;;;;;;20.30;7.47;;;;;;;;;;5028009;28;20041;-68
2024/01/14 12:29:44;;;;;;;19.30;8.13;;;;;;;;;;5027550;28;20052;-67
2024/01/14 12:32:10;;;;;;;18.53;7.63;;;;;;;;;;5027829;28;20463;-66
2024/01/14 12:34:40;;;;;;;16.33;7.10;;;;;;;;;;5027643;28;20083;-67
2024/01/14 12:37:06;;;;;;;17.93;6.17;;;;;;;;;;5027610;28;20028;-67
2024/01/14 12:39:31;;;;;;;16.57;6.80;;;;;;;;;;5027999;28;20033;-66
2024/01/14 12:41:57;;;;;;;18.10;7.87;;;;;;;;;;5027797;28;20033;-66
2024/01/14 12:44:24;;;;;;;19.73;8.70;;;;;;;;;;5027814;28;20021;-66
2024/01/14 12:46:53;;;;;;;17.53;6.93;;;;;;;;;;5027572;28;20743;-65
2024/01/14 12:49:20;;;;;;;21.10;9.70;;;;;;;;;;5027295;28;20021;-67
2024/01/14 12:51:45;;;;;;;18.57;8.53;;;;;;;;;;5027456;28;20048;-65
2024/01/14 12:54:11;;;;;;;18.43;8.60;;;;;;;;;;5027959;28;20070;-66
2024/01/14 12:56:37;;;;;;;12.30;5.63;;;;;;;;;;5027929;28;20025;-66
2024/01/14 12:59:03;;;;;;;14.67;6.53;;;;;;;;;;5027984;28;20552;-66
2024/01/14 13:01:28;;;;;;;14.73;7.27;;;;;;;;;;5026723;28;20059;-65
2024/01/14 13:03:53;;;;;;;28.57;8.60;;;;;;;;;;5025817;28;20029;-65
2024/01/14 13:06:19;;;;;;;18.50;8.23;;;;;;;;;;5025026;28;20025;-66
2024/01/14 13:08:44;;;;;;;19.77;8.60;;;;;;;;;;5026752;28;20032;-66
2024/01/14 13:11:09;;;;;;;18.93;7.53;;;;;;;;;;5026360;28;20524;-66
2024/01/14 13:13:37;;;;;;;21.03;8.47;;;;;;;;;;5027722;28;20032;-66
2024/01/14 13:16:04;;;;;;;17.93;7.77;;;;;;;;;;5027266;28;20017;-65
2024/01/14 13:18:29;;;;;;;23.03;7.43;;;;;;;;;;5027482;28;20025;-65
2024/01/14 13:20:55;;;;;;;20.90;8.57;;;;;;;;;;5027071;28;20532;-66
2024/01/14 13:23:20;;;;;;;20.40;8.03;;;;;;;;;;5026860;28;20051;-66
2024/01/14 13:25:46;;;;;;;17.87;7.40;;;;;;;;;;5026995;28;20030;-66
2024/01/14 13:28:11;;;;;;;14.17;5.87;;;;;;;;;;5027149;28;20025;-67
2024/01/14 13:30:36;;;;;;;9.47;4.93;;;;;;;;;;5027207;28;20026;-67
2024/01/14 13:33:02;;;;;;;18.53;7.87;;;;;;;;;;5027536;28;20057;-66
2024/01/14 13:35:28;;;;;;;18.00;8.07;;;;;;;;;;5025898;28;20049;-67
2024/01/14 13:37:53;;;;;;;14.23;5.17;;;;;;;;;;5007757;28;20115;-67
2024/01/14 13:40:18;;;;;;;13.87;6.13;;;;;;;;;;5025826;28;20108;-62
2024/01/14 13:42:44;;;;;;;18.27;7.63;;;;;;;;;;5028388;28;20040;-61
2024/01/14 13:45:09;;;;;;;19.60;8.70;;;;;;;;;;5026847;28;20032;-62
2024/01/14 13:47:35;;;;;;;19.50;8.43;;;;;;;;;;5028787;28;20029;-62
2024/01/14 13:50:00;;;;;;;19.70;7.90;;;;;;;;;;5028480;28;20048;-62
2024/01/14 13:52:25;;;;;;;21.70;9.07;;;;;;;;;;5029086;28;20029;-61
2024/01/14 13:54:51;;;;;;;23.07;9.20;;;;;;;;;;5026641;28;20064;-62
2024/01/14 13:57:17;;;;;;;17.60;7.87;;;;;;;;;;5027645;28;20033;-62
2024/01/14 13:59:46;;;;;;;20.77;8.73;;;;;;;;;;5026612;28;20144;-62
2024/01/14 14:02:15;;;;;;;24.00;9.27;;;;;;;;;;5028286;28;20811;-62
2024/01/14 14:04:41;;;;;;;23.57;9.57;;;;;;;;;;5028267;28;20440;-62
2024/01/14 14:07:06;;;;;;;21.97;8.97;;;;;;;;;;5026098;28;20100;-62
2024/01/14 14:09:32;;;;;;;24.80;10.33;;;;;;;;;;5026031;28;20026;-61
2024/01/14 14:11:57;;;;;;;27.33;10.67;;;;;;;;;;5023781;28;20025;-61
2024/01/14 14:14:22;;;;;;;20.30;9.17;;;;;;;;;;5025524;28;20408;-61
2024/01/14 14:16:48;;;;;;;22.43;8.80;;;;;;;;;;5030254;28;20030;-62
2024/01/14 14:19:13;;;;;;;23.80;10.30;;;;;;;;;;5032060;28;20052;-61
2024/01/14 14:21:38;;;;;;;17.87;7.90;;;;;;;;;;5027805;28;20033;-62
2024/01/14 14:24:04;;;;;;;18.27;8.03;;;;;;;;;;5025898;28;20021;-63